A- A+ FrançaisEnglishEspañol中国

Services sur Internet Soldes sur Internet Des idées de cadeaux Météo Météo aéro

La météo à : Autours de vous Tarbes-Lourdes-PyrénéesParis-Le-Bourget AlbertvilleLe-Havre-Octeville

manche à air

La météo aéronautique pour les pilotes, la préparation du vol avec les METAR (METeorological Aerodrome Report, message d'observation des conditions météorologiques pour l'aviation) et Les TAF (Terminal Aerodrome Forecast : message de prévision à court terme des conditions météorologiques pour l'aviation). Et les autres ressources comme les VAC (Visual Approch Chart) et les NOTAM (Notice To Airman) pour préprer les vols.

Aéroport Hamburg - Finkenwerder (Allemagne) / OACI EDHI/ IATA XFW

L'altitude de l'aéroport Hamburg - Finkenwerder est de 7 m = 23 ft. Il est situé à proximité de Hamburg (Allemagne). La météo générale à 5 jours est disponible pour Nienstedten situé à 1.9 km.

METAR de l'aéroport Hamburg - Finkenwerder - EDHI

EDHI 110220Z AUTO 20015KT 9999 // BKN027/// OVC033/// 06/M01 Q1009

Décodage du METAR de l'aéroport Hamburg - Finkenwerder (DE)

METAR émis par EDHI le mercredi 11 décembre 2019 à 02:20 heure TU. C'est un METAR généré automatiquement, il y a 11 minutes.

La visibilité est de supérieure à 10 km = supérieure à 6.2 sm.

La température est de 6°C = 43 °F et le point rosée est de -1°C = 30 °F . Ce qui correspond à 61% d'humidité relative.

Le QNH est de 1009 hPa = 29.8 inHg

Vent de 15 kt = 28 km/h, orienté à 200°.

Nuages : Couverture nuageuse fragmentée à 2700 ft = 820 mètres. Couverture nuageuse soudée à 3300 ft = 1010 mètres.

TAF de l'aéroport Hamburg - Finkenwerder - EDHI

EDHI 101700Z 1018/1021 18008KT CAVOK

EDHI 101700Z 1018/1021 18008KT visibilité supérieure à 10km, aucun nuage à une hauteur inférieure à 5000 ft ou sous l'altitude minimale de secteur et aucun cumulonimbus ou cumulus bourgeonnant, quelle que soit leur altitude

Aéroport à proximité de Hamburg - Finkenwerder

Météo générale à 5 jours à Nienstedten (1.9 km)Aéroport Hamburg (15 km)Aéroport Uetersen (15 km)Aéroport Ahrenlohe (19 km)Aéroport Stade (22 km)Aéroport Lauenbruck (40 km)Aéroport Seedorf (44 km)

Vue aérienne de l'aéroport Hamburg - Finkenwerder

NOTAM de l'aéroport Hamburg - Finkenwerder

Les NOTAM sont fournis sans aucune garantie de leur actualité. Le pilote est le seul responsable de la vérification de sa validité avant de l'utiliser opérationnellement pour préparer un vol ou l'utiliser lors de sa navigation.

Pas de NOTAM

Sources des données